createdAt,value
2023-01-25T00:00:46.977Z,15.85
2023-01-25T00:03:14.173Z,15.90
2023-01-25T00:05:41.211Z,14.48
2023-01-25T00:08:08.368Z,15.05
2023-01-25T00:10:35.458Z,16.35
2023-01-25T00:13:02.567Z,16.15
2023-01-25T00:15:29.719Z,15.15
2023-01-25T00:17:56.869Z,15.70
2023-01-25T00:20:23.955Z,14.68
2023-01-25T00:22:51.123Z,13.75
2023-01-25T00:25:18.176Z,13.43
2023-01-25T00:27:45.299Z,12.82
2023-01-25T00:30:12.769Z,13.10
2023-01-25T00:32:58.477Z,15.07
2023-01-25T00:35:32.697Z,14.00
2023-01-25T00:38:02.995Z,13.25
2023-01-25T00:40:30.222Z,13.65
2023-01-25T00:43:01.023Z,13.70
2023-01-25T00:45:28.210Z,13.10
2023-01-25T00:47:56.555Z,12.20
2023-01-25T00:50:24.083Z,12.82
2023-01-25T00:52:51.166Z,12.27
2023-01-25T00:55:18.272Z,12.70
2023-01-25T00:57:48.247Z,12.75
2023-01-25T01:00:15.905Z,12.48
2023-01-25T01:02:42.919Z,11.77
2023-01-25T01:05:10.674Z,11.82
2023-01-25T01:07:38.402Z,12.48
2023-01-25T01:10:06.298Z,12.75
2023-01-25T01:12:33.374Z,12.10
2023-01-25T01:15:00.457Z,12.50
2023-01-25T01:17:27.593Z,13.63
2023-01-25T01:19:54.731Z,14.77
2023-01-25T01:22:21.803Z,13.23
2023-01-25T01:24:49.745Z,11.70
2023-01-25T01:27:16.825Z,11.82
2023-01-25T01:29:43.847Z,12.80
2023-01-25T01:32:11.034Z,12.30
2023-01-25T01:34:38.324Z,11.02
2023-01-25T01:37:05.431Z,12.73
2023-01-25T01:39:32.497Z,12.57
2023-01-25T01:41:59.767Z,14.30
2023-01-25T01:44:54.281Z,12.98
2023-01-25T01:47:31.010Z,12.93
2023-01-25T01:50:14.667Z,13.13
2023-01-25T01:52:42.185Z,13.05
2023-01-25T01:55:15.294Z,12.48
2023-01-25T01:57:56.000Z,13.25
2023-01-25T02:00:29.965Z,13.43
2023-01-25T02:02:59.001Z,12.85
2023-01-25T02:05:41.504Z,13.13
2023-01-25T02:08:13.695Z,13.73
2023-01-25T02:10:42.541Z,13.35
2023-01-25T02:13:10.860Z,13.37
2023-01-25T02:15:45.143Z,13.30
2023-01-25T02:18:13.096Z,13.15
2023-01-25T02:20:45.951Z,13.40
2023-01-25T02:23:19.552Z,13.38
2023-01-25T02:25:47.213Z,15.13
2023-01-25T02:28:20.881Z,14.43
2023-01-25T02:30:48.329Z,13.75
2023-01-25T02:33:16.429Z,14.38
2023-01-25T02:35:47.096Z,14.32
2023-01-25T02:38:18.423Z,13.60
2023-01-25T02:40:49.772Z,14.70
2023-01-25T02:43:18.765Z,14.70
2023-01-25T02:45:56.463Z,13.82
2023-01-25T02:48:23.501Z,14.38
2023-01-25T02:50:50.614Z,14.60
2023-01-25T02:53:17.645Z,15.65
2023-01-25T02:55:45.613Z,14.73
2023-01-25T02:58:12.714Z,15.80
2023-01-25T03:00:39.913Z,16.40
2023-01-25T03:03:07.099Z,15.95
2023-01-25T03:05:34.624Z,14.27
2023-01-25T03:08:01.824Z,15.73
2023-01-25T03:10:28.902Z,18.35
2023-01-25T03:12:56.284Z,14.70
2023-01-25T03:15:23.426Z,16.95
2023-01-25T03:17:50.688Z,15.93
2023-01-25T03:20:18.839Z,18.17
2023-01-25T03:22:45.928Z,16.90
2023-01-25T03:25:13.078Z,17.48
2023-01-25T03:27:49.236Z,16.48
2023-01-25T03:30:16.412Z,19.75
2023-01-25T03:32:43.598Z,19.90
2023-01-25T03:35:15.179Z,19.00
2023-01-25T03:37:43.115Z,18.63
2023-01-25T03:40:10.966Z,19.40
2023-01-25T03:42:41.786Z,19.92
2023-01-25T03:45:09.284Z,18.83
2023-01-25T03:47:36.764Z,18.25
2023-01-25T03:50:04.434Z,17.60
2023-01-25T03:52:38.709Z,18.17
2023-01-25T03:55:07.653Z,18.05
2023-01-25T03:57:38.486Z,18.35
2023-01-25T04:00:06.943Z,19.33
2023-01-25T04:02:42.255Z,18.20
2023-01-25T04:05:13.270Z,18.25
2023-01-25T04:07:42.044Z,20.63
2023-01-25T04:10:10.542Z,19.02
2023-01-25T04:12:41.703Z,17.27
2023-01-25T04:15:09.787Z,17.38
2023-01-25T04:17:37.127Z,17.42
2023-01-25T04:20:33.435Z,16.67
2023-01-25T04:23:01.577Z,16.60
2023-01-25T04:25:35.773Z,18.02
2023-01-25T04:28:03.523Z,16.83
2023-01-25T04:30:31.305Z,15.60
2023-01-25T04:33:03.861Z,14.85
2023-01-25T04:35:32.031Z,16.10
2023-01-25T04:38:00.875Z,15.88
2023-01-25T04:40:35.567Z,16.08
2023-01-25T04:43:03.293Z,15.45
2023-01-25T04:45:31.501Z,15.63
2023-01-25T04:48:02.361Z,13.82
2023-01-25T04:50:31.246Z,15.07
2023-01-25T04:52:59.478Z,13.98
2023-01-25T04:55:31.004Z,14.35
2023-01-25T04:57:59.463Z,13.95
2023-01-25T05:00:26.825Z,14.00
2023-01-25T05:02:54.422Z,15.88
2023-01-25T05:05:22.305Z,14.88
2023-01-25T05:07:49.490Z,15.07
2023-01-25T05:10:16.634Z,15.20
2023-01-25T05:13:03.694Z,15.88
2023-01-25T05:15:31.592Z,13.48
2023-01-25T05:17:58.738Z,14.52
2023-01-25T05:20:25.824Z,13.90
2023-01-25T05:22:53.734Z,12.93
2023-01-25T05:25:40.213Z,12.75
2023-01-25T05:28:08.478Z,12.93
2023-01-25T05:31:04.814Z,13.68
2023-01-25T05:33:34.252Z,14.32
2023-01-25T05:36:01.368Z,13.80
2023-01-25T05:38:33.465Z,13.88
2023-01-25T05:41:00.648Z,13.30
2023-01-25T05:43:28.376Z,14.90
2023-01-25T05:45:56.387Z,13.40
2023-01-25T05:48:23.896Z,13.80
2023-01-25T05:50:51.584Z,13.38
2023-01-25T05:55:52.879Z,13.45
2023-01-25T05:58:19.972Z,15.00
2023-01-25T06:00:47.108Z,13.48
2023-01-25T06:03:24.891Z,14.65
2023-01-25T06:06:01.991Z,12.40
2023-01-25T06:08:30.638Z,13.82
2023-01-25T06:10:58.629Z,13.52
2023-01-25T06:13:25.804Z,14.10
2023-01-25T06:15:57.848Z,14.43
2023-01-25T06:18:43.264Z,13.55
2023-01-25T06:21:28.749Z,13.43
2023-01-25T06:23:55.930Z,14.77
2023-01-25T06:26:23.003Z,15.65
2023-01-25T06:28:51.107Z,15.40
2023-01-25T06:31:19.780Z,14.70
2023-01-25T06:33:51.895Z,13.90
2023-01-25T06:36:22.197Z,14.13
2023-01-25T06:38:51.017Z,13.93
2023-01-25T06:41:19.526Z,14.68
2023-01-25T06:43:48.273Z,14.38
2023-01-25T06:46:15.516Z,15.90
2023-01-25T06:48:45.875Z,15.02
2023-01-25T06:51:16.515Z,14.90
2023-01-25T06:53:45.744Z,15.75
2023-01-25T06:56:16.202Z,14.80
2023-01-25T06:58:43.582Z,14.63
2023-01-25T07:01:17.906Z,15.30
2023-01-25T07:03:48.778Z,15.50
2023-01-25T07:06:15.953Z,15.52
2023-01-25T07:08:42.983Z,15.55
2023-01-25T07:11:14.096Z,15.23
2023-01-25T07:13:43.232Z,15.63
2023-01-25T07:16:13.839Z,16.02
2023-01-25T07:18:42.352Z,18.45
2023-01-25T07:21:13.484Z,16.02
2023-01-25T07:23:41.750Z,16.05
2023-01-25T07:26:23.517Z,14.65
2023-01-25T07:28:51.246Z,15.52
2023-01-25T07:31:20.200Z,15.25
2023-01-25T07:33:52.171Z,15.15
2023-01-25T07:36:19.874Z,14.63
2023-01-25T07:38:47.185Z,16.30
2023-01-25T07:41:16.622Z,15.68
2023-01-25T07:43:43.959Z,16.52
2023-01-25T07:46:12.972Z,15.68
2023-01-25T07:48:41.827Z,15.32
2023-01-25T07:51:22.871Z,16.33
2023-01-25T07:53:52.984Z,16.50
2023-01-25T07:58:48.585Z,15.48
2023-01-25T08:01:18.146Z,17.33
2023-01-25T08:03:46.456Z,15.80
2023-01-25T08:06:13.986Z,16.25
2023-01-25T08:08:46.978Z,15.98
2023-01-25T08:11:16.895Z,15.43
2023-01-25T08:13:47.820Z,17.08
2023-01-25T08:16:16.784Z,15.88
2023-01-25T08:18:44.398Z,16.85
2023-01-25T08:21:12.507Z,16.00
2023-01-25T08:23:39.620Z,15.48
2023-01-25T08:26:08.320Z,15.95
2023-01-25T08:28:36.098Z,16.42
2023-01-25T08:31:09.995Z,17.17
2023-01-25T08:33:38.195Z,16.17
2023-01-25T08:36:06.294Z,15.93
2023-01-25T08:38:33.469Z,18.20
2023-01-25T08:41:11.054Z,15.40
2023-01-25T08:43:38.858Z,16.58
2023-01-25T08:46:06.516Z,16.13
2023-01-25T08:48:33.635Z,16.60
2023-01-25T08:51:01.245Z,17.27
2023-01-25T08:53:33.150Z,18.15
2023-01-25T08:56:05.427Z,16.80
2023-01-25T08:58:32.818Z,16.05
2023-01-25T09:01:05.424Z,16.20
2023-01-25T09:03:36.187Z,16.77
2023-01-25T09:06:03.572Z,19.25
2023-01-25T09:08:56.772Z,18.35
2023-01-25T09:11:23.851Z,18.40
2023-01-25T09:13:51.322Z,17.75
2023-01-25T09:16:28.456Z,16.65
2023-01-25T09:19:02.373Z,17.83
2023-01-25T09:21:30.143Z,16.45
2023-01-25T09:24:07.217Z,16.65
2023-01-25T09:26:40.102Z,16.77
2023-01-25T09:29:11.782Z,15.50
2023-01-25T09:31:41.048Z,16.63
2023-01-25T09:34:27.503Z,16.50
2023-01-25T09:36:54.534Z,16.08
2023-01-25T09:39:21.616Z,16.25
2023-01-25T09:42:27.146Z,15.63
2023-01-25T09:45:06.148Z,13.77
2023-01-25T09:47:49.411Z,14.52
2023-01-25T09:50:19.013Z,13.73
2023-01-25T09:53:17.109Z,13.57
2023-01-25T09:55:44.786Z,15.00
2023-01-25T09:58:20.049Z,14.73
2023-01-25T10:00:51.272Z,15.98
2023-01-25T10:03:26.268Z,15.90
2023-01-25T10:06:01.757Z,16.13
2023-01-25T10:08:31.598Z,18.23
2023-01-25T10:11:19.762Z,15.45
2023-01-25T10:13:47.142Z,16.67
2023-01-25T10:16:25.661Z,16.38
2023-01-25T10:19:06.183Z,14.67
2023-01-25T10:21:45.749Z,15.18
2023-01-25T10:24:37.609Z,17.23
2023-01-25T10:27:29.691Z,17.73
2023-01-25T10:29:59.355Z,18.52
2023-01-25T10:32:32.558Z,14.35
2023-01-25T10:35:19.718Z,15.73
2023-01-25T10:37:54.256Z,15.05
2023-01-25T10:40:31.969Z,15.80
2023-01-25T10:43:04.134Z,14.88
2023-01-25T10:45:31.160Z,16.45
2023-01-25T10:48:04.180Z,16.67
2023-01-25T10:50:37.391Z,16.15
2023-01-25T10:53:04.683Z,16.10
2023-01-25T10:55:31.834Z,15.15
2023-01-25T10:57:59.085Z,16.20
2023-01-25T11:00:33.456Z,16.75
2023-01-25T11:03:00.630Z,17.13
2023-01-25T11:05:33.772Z,16.73
2023-01-25T11:08:21.317Z,19.40
2023-01-25T11:10:49.214Z,18.08
2023-01-25T11:13:16.403Z,16.85
2023-01-25T11:16:05.148Z,17.00
2023-01-25T11:18:35.402Z,17.45
2023-01-25T11:21:18.946Z,17.83
2023-01-25T11:24:00.666Z,17.85
2023-01-25T11:26:28.069Z,18.85
2023-01-25T11:29:13.442Z,20.05
2023-01-25T11:31:46.330Z,20.05
2023-01-25T11:34:19.652Z,20.60
2023-01-25T11:37:16.082Z,18.75
2023-01-25T11:39:50.876Z,19.10
2023-01-25T11:42:17.913Z,19.20
2023-01-25T11:45:12.451Z,18.88
2023-01-25T11:47:51.553Z,18.73
2023-01-25T11:50:27.299Z,19.08
2023-01-25T11:53:09.407Z,18.88
2023-01-25T11:55:49.795Z,18.25
2023-01-25T11:58:16.814Z,19.25
2023-01-25T12:00:52.287Z,18.35
2023-01-25T12:03:43.491Z,20.10
2023-01-25T12:06:21.785Z,17.85
2023-01-25T12:08:51.641Z,19.75
2023-01-25T12:11:33.586Z,18.42
2023-01-25T12:14:40.722Z,17.45
2023-01-25T12:17:19.641Z,18.13
2023-01-25T12:20:18.839Z,16.02
2023-01-25T12:23:10.044Z,17.65
2023-01-25T12:26:07.902Z,17.52
2023-01-25T12:28:52.395Z,17.48
2023-01-25T12:31:44.834Z,16.48
2023-01-25T12:34:23.004Z,16.83
2023-01-25T12:36:51.026Z,15.63
2023-01-25T12:39:21.495Z,18.40
2023-01-25T12:42:06.569Z,16.35
2023-01-25T12:44:43.973Z,16.27
2023-01-25T12:47:20.966Z,16.48
2023-01-25T12:49:51.613Z,15.30
2023-01-25T12:52:32.210Z,15.23
2023-01-25T12:55:12.841Z,16.48
2023-01-25T12:58:00.146Z,16.20
2023-01-25T13:00:48.843Z,15.38
2023-01-25T13:03:18.697Z,16.88
2023-01-25T13:05:53.175Z,16.33
2023-01-25T13:08:47.608Z,17.27
2023-01-25T13:11:32.609Z,16.88
2023-01-25T13:14:18.308Z,15.57
2023-01-25T13:16:50.255Z,17.73
2023-01-25T13:19:38.514Z,16.85
2023-01-25T13:22:05.703Z,16.92
2023-01-25T13:24:35.182Z,16.75
2023-01-25T13:27:04.883Z,15.98
2023-01-25T13:29:43.789Z,17.35
2023-01-25T13:32:35.595Z,16.05
2023-01-25T13:35:03.288Z,16.85
2023-01-25T13:37:31.944Z,17.30
2023-01-25T13:40:09.694Z,16.73
2023-01-25T13:42:39.783Z,16.55
2023-01-25T13:45:18.957Z,18.73
2023-01-25T13:48:05.976Z,16.85
2023-01-25T13:50:45.577Z,17.88
2023-01-25T13:53:15.418Z,18.88
2023-01-25T13:55:47.746Z,16.65
2023-01-25T13:58:23.847Z,17.70
2023-01-25T14:01:16.103Z,18.88
2023-01-25T14:03:49.565Z,18.63
2023-01-25T14:06:20.818Z,18.70
2023-01-25T14:08:49.249Z,18.48
2023-01-25T14:11:28.357Z,17.60
2023-01-25T14:14:14.418Z,19.30
2023-01-25T14:16:41.575Z,17.83
2023-01-25T14:19:25.655Z,17.65
2023-01-25T14:22:20.883Z,18.85
2023-01-25T14:25:15.648Z,17.77
2023-01-25T14:28:00.952Z,19.75
2023-01-25T14:30:31.065Z,21.67
2023-01-25T14:35:43.216Z,19.48
2023-01-25T14:38:28.061Z,19.60
2023-01-25T14:41:13.109Z,17.92
2023-01-25T14:43:43.733Z,19.33
2023-01-25T14:46:26.882Z,19.33
2023-01-25T14:49:20.345Z,18.35
2023-01-25T14:51:50.921Z,18.58
2023-01-25T14:54:20.833Z,17.27
2023-01-25T14:56:50.861Z,17.30
2023-01-25T14:59:32.781Z,17.88
2023-01-25T15:02:30.591Z,18.40
2023-01-25T15:05:15.079Z,16.60
2023-01-25T15:07:47.230Z,17.77
2023-01-25T15:10:24.264Z,16.95
2023-01-25T15:13:11.624Z,15.45
2023-01-25T15:15:59.359Z,17.00
2023-01-25T15:18:45.275Z,15.20
2023-01-25T15:21:32.225Z,16.77
2023-01-25T15:24:05.116Z,17.67
2023-01-25T15:26:34.290Z,17.17
2023-01-25T15:29:05.992Z,18.80
2023-01-25T15:31:35.112Z,17.58
2023-01-25T15:34:03.295Z,16.42
2023-01-25T15:36:32.278Z,17.48
2023-01-25T15:38:59.694Z,18.45
2023-01-25T15:41:26.783Z,17.83
2023-01-25T15:43:54.010Z,17.75
2023-01-25T15:46:22.917Z,18.05
2023-01-25T15:48:51.247Z,17.20
2023-01-25T15:51:19.066Z,16.98
2023-01-25T15:53:47.188Z,17.20
2023-01-25T15:56:16.233Z,15.43
2023-01-25T15:58:50.432Z,17.25
2023-01-25T16:01:18.031Z,16.52
2023-01-25T16:03:45.460Z,17.85
2023-01-25T16:06:37.094Z,17.20
2023-01-25T16:09:17.050Z,17.13
2023-01-25T16:11:45.073Z,17.58
2023-01-25T16:14:12.595Z,16.88
2023-01-25T16:16:44.466Z,15.65
2023-01-25T16:19:16.512Z,16.30
2023-01-25T16:21:43.754Z,17.52
2023-01-25T16:24:11.914Z,16.95
2023-01-25T16:26:45.425Z,16.23
2023-01-25T16:29:12.729Z,15.55
2023-01-25T16:31:39.922Z,15.68
2023-01-25T16:34:07.183Z,16.30
2023-01-25T16:36:34.855Z,17.55
2023-01-25T16:39:21.182Z,16.55
2023-01-25T16:41:49.269Z,16.38
2023-01-25T16:44:17.136Z,16.77
2023-01-25T16:46:44.474Z,18.13
2023-01-25T16:49:19.826Z,17.88
2023-01-25T16:51:49.246Z,19.02
2023-01-25T16:54:16.649Z,18.80
2023-01-25T16:56:44.201Z,18.80
2023-01-25T16:59:12.084Z,19.50
2023-01-25T17:01:41.585Z,18.65
2023-01-25T17:04:09.920Z,18.90
2023-01-25T17:06:40.579Z,20.15
2023-01-25T17:09:21.895Z,17.45
2023-01-25T17:11:49.977Z,18.50
2023-01-25T17:14:19.242Z,18.40
2023-01-25T17:16:48.583Z,19.13
2023-01-25T17:19:17.172Z,20.27
2023-01-25T17:21:45.791Z,20.70
2023-01-25T17:24:15.459Z,20.52
2023-01-25T17:26:42.869Z,19.88
2023-01-25T17:29:10.631Z,19.15
2023-01-25T17:31:39.883Z,19.30
2023-01-25T17:34:08.725Z,18.83
2023-01-25T17:36:35.889Z,20.33
2023-01-25T17:39:07.096Z,19.75
2023-01-25T17:41:34.478Z,20.15
2023-01-25T17:44:01.715Z,17.83
2023-01-25T17:46:33.454Z,20.55
2023-01-25T17:49:02.501Z,20.30
2023-01-25T17:51:30.476Z,21.80
2023-01-25T17:53:58.316Z,22.63
2023-01-25T17:56:26.529Z,22.65
2023-01-25T17:58:53.853Z,21.70
2023-01-25T18:01:23.965Z,22.42
2023-01-25T18:06:30.000Z,22.10
2023-01-25T18:09:02.668Z,21.27
2023-01-25T18:11:32.244Z,23.70
2023-01-25T18:14:02.586Z,23.00
2023-01-25T18:16:31.782Z,22.95
2023-01-25T18:19:00.345Z,22.97
2023-01-25T18:21:31.173Z,22.98
2023-01-25T18:24:05.170Z,22.33
2023-01-25T18:26:35.600Z,22.58
2023-01-25T18:29:46.471Z,23.50
2023-01-25T18:32:15.619Z,22.02
2023-01-25T18:34:42.776Z,24.42
2023-01-25T18:37:21.018Z,24.05
2023-01-25T18:39:50.597Z,21.77
2023-01-25T18:42:18.857Z,23.08
2023-01-25T18:44:48.582Z,24.55
2023-01-25T18:47:20.156Z,24.73
2023-01-25T18:49:49.548Z,24.95
2023-01-25T18:52:21.855Z,25.13
2023-01-25T18:54:49.350Z,23.98
2023-01-25T18:57:17.302Z,22.95
2023-01-25T18:59:44.737Z,22.85
2023-01-25T19:02:16.740Z,22.55
2023-01-25T19:04:44.360Z,22.48
2023-01-25T19:07:11.823Z,23.10
2023-01-25T19:09:39.013Z,22.95
2023-01-25T19:12:06.714Z,21.50
2023-01-25T19:14:33.853Z,22.00
2023-01-25T19:17:02.444Z,23.48
2023-01-25T19:19:32.364Z,23.58
2023-01-25T19:22:00.075Z,25.20
2023-01-25T19:24:27.200Z,23.67
2023-01-25T19:26:57.178Z,24.25
2023-01-25T19:29:24.305Z,26.50
2023-01-25T19:31:51.480Z,24.45
2023-01-25T19:34:18.787Z,24.52
2023-01-25T19:36:49.615Z,23.95
2023-01-25T19:39:17.098Z,23.40
2023-01-25T19:41:44.238Z,24.90
2023-01-25T19:44:14.108Z,24.02
2023-01-25T19:46:41.370Z,22.83
2023-01-25T19:49:10.325Z,23.77
2023-01-25T19:51:41.565Z,27.25
2023-01-25T19:54:12.186Z,23.85
2023-01-25T19:56:41.530Z,23.60
2023-01-25T19:59:12.407Z,25.33
2023-01-25T20:01:46.478Z,25.23
2023-01-25T20:04:16.507Z,26.67
2023-01-25T20:06:43.975Z,27.60
2023-01-25T20:09:15.264Z,27.48
2023-01-25T20:11:42.437Z,26.20
2023-01-25T20:14:12.477Z,25.65
2023-01-25T20:16:39.598Z,27.02
2023-01-25T20:19:07.173Z,27.48
2023-01-25T20:21:35.521Z,24.30
2023-01-25T20:24:05.162Z,23.67
2023-01-25T20:26:36.346Z,24.55
2023-01-25T20:29:03.632Z,25.27
2023-01-25T20:31:34.047Z,24.50
2023-01-25T20:34:07.437Z,23.33
2023-01-25T20:36:35.936Z,23.02
2023-01-25T20:39:03.773Z,24.30
2023-01-25T20:41:30.912Z,26.33
2023-01-25T20:44:04.734Z,25.10
2023-01-25T20:46:34.904Z,24.58
2023-01-25T20:51:29.829Z,26.23
2023-01-25T20:53:57.623Z,26.77
2023-01-25T20:56:24.919Z,23.70
2023-01-25T20:58:53.546Z,24.15
2023-01-25T21:01:29.702Z,21.48
2023-01-25T21:03:58.252Z,23.77
2023-01-25T21:06:26.692Z,22.77
2023-01-25T21:08:53.976Z,23.33
2023-01-25T21:11:23.378Z,23.58
2023-01-25T21:13:50.498Z,23.13
2023-01-25T21:16:21.847Z,20.23
2023-01-25T21:18:54.823Z,23.38
2023-01-25T21:21:30.233Z,23.98
2023-01-25T21:24:00.422Z,25.00
2023-01-25T21:28:55.932Z,20.77
2023-01-25T21:31:25.637Z,22.70
2023-01-25T21:33:53.469Z,21.10
2023-01-25T21:36:21.386Z,21.52
2023-01-25T21:38:51.655Z,21.75
2023-01-25T21:41:26.913Z,20.83
2023-01-25T21:44:14.040Z,21.73
2023-01-25T21:46:41.887Z,23.45
2023-01-25T21:49:29.329Z,21.48
2023-01-25T21:52:00.577Z,21.95
2023-01-25T21:54:38.215Z,23.98
2023-01-25T21:57:10.348Z,22.90
2023-01-25T21:59:38.575Z,20.73
2023-01-25T22:02:08.310Z,21.83
2023-01-25T22:04:36.287Z,25.08
2023-01-25T22:07:04.228Z,25.77
2023-01-25T22:09:31.429Z,24.90
2023-01-25T22:11:58.792Z,27.27
2023-01-25T22:14:25.928Z,28.98
2023-01-25T22:16:53.609Z,24.45
2023-01-25T22:19:20.767Z,27.45
2023-01-25T22:21:48.374Z,24.50
2023-01-25T22:24:15.487Z,26.15
2023-01-25T22:27:03.862Z,27.30
2023-01-25T22:29:33.517Z,24.95
2023-01-25T22:32:00.597Z,25.13
2023-01-25T22:34:27.664Z,24.77
2023-01-25T22:36:54.742Z,24.95
2023-01-25T22:39:21.762Z,25.42
2023-01-25T22:41:48.788Z,27.17
2023-01-25T22:44:16.811Z,24.30
2023-01-25T22:46:43.946Z,24.35
2023-01-25T22:49:11.070Z,27.15
2023-01-25T22:51:38.206Z,28.23
2023-01-25T22:54:05.491Z,24.73
2023-01-25T22:56:33.937Z,23.75
2023-01-25T22:59:01.920Z,24.35
2023-01-25T23:01:34.553Z,25.45
2023-01-25T23:04:02.467Z,23.20
2023-01-25T23:06:34.330Z,26.60
2023-01-25T23:09:03.622Z,27.77
2023-01-25T23:11:35.713Z,25.27
2023-01-25T23:14:47.134Z,25.48
2023-01-25T23:17:32.883Z,28.00
2023-01-25T23:19:59.970Z,24.85
2023-01-25T23:22:27.343Z,23.80
2023-01-25T23:24:54.436Z,25.63
2023-01-25T23:27:21.546Z,26.65
2023-01-25T23:29:50.103Z,30.15
2023-01-25T23:32:17.138Z,28.92
2023-01-25T23:34:45.016Z,27.42
2023-01-25T23:37:12.554Z,26.88
2023-01-25T23:39:39.992Z,25.92
2023-01-25T23:42:07.077Z,30.15
2023-01-25T23:44:34.143Z,29.90
2023-01-25T23:47:01.872Z,31.00
2023-01-25T23:49:28.994Z,29.98
2023-01-25T23:51:56.609Z,31.42
2023-01-25T23:54:23.663Z,30.55
2023-01-25T23:56:50.745Z,31.85
2023-01-25T23:59:17.765Z,31.20
